sensor_id;sensor_type;location;lat;lon;timestamp;P1;durP1;ratioP1;P2;durP2;ratioP2
13520;SDS011;6832;51.186;3.236;2023-04-01T00:00:32;46.40;;;7.17;;
13520;SDS011;6832;51.186;3.236;2023-04-01T00:03:01;55.37;;;7.50;;
13520;SDS011;6832;51.186;3.236;2023-04-01T00:05:28;35.37;;;5.97;;
13520;SDS011;6832;51.186;3.236;2023-04-01T00:07:55;44.23;;;6.77;;
13520;SDS011;6832;51.186;3.236;2023-04-01T00:10:23;38.63;;;6.60;;
13520;SDS011;6832;51.186;3.236;2023-04-01T00:12:50;39.53;;;6.40;;
13520;SDS011;6832;51.186;3.236;2023-04-01T00:15:18;40.80;;;6.53;;
13520;SDS011;6832;51.186;3.236;2023-04-01T00:17:45;45.60;;;7.53;;
13520;SDS011;6832;51.186;3.236;2023-04-01T00:20:14;47.10;;;7.17;;
13520;SDS011;6832;51.186;3.236;2023-04-01T00:22:42;43.47;;;6.93;;
13520;SDS011;6832;51.186;3.236;2023-04-01T00:25:09;45.80;;;7.10;;
13520;SDS011;6832;51.186;3.236;2023-04-01T00:27:36;39.47;;;6.67;;
13520;SDS011;6832;51.186;3.236;2023-04-01T00:30:04;46.43;;;7.37;;
13520;SDS011;6832;51.186;3.236;2023-04-01T00:32:32;48.37;;;7.20;;
13520;SDS011;6832;51.186;3.236;2023-04-01T00:34:59;41.23;;;6.57;;
13520;SDS011;6832;51.186;3.236;2023-04-01T00:37:28;31.57;;;5.87;;
13520;SDS011;6832;51.186;3.236;2023-04-01T00:39:59;50.77;;;7.57;;
13520;SDS011;6832;51.186;3.236;2023-04-01T00:42:26;35.43;;;6.07;;
13520;SDS011;6832;51.186;3.236;2023-04-01T00:44:54;31.27;;;6.13;;
13520;SDS011;6832;51.186;3.236;2023-04-01T00:47:21;44.00;;;6.60;;
13520;SDS011;6832;51.186;3.236;2023-04-01T00:49:51;52.07;;;7.07;;
13520;SDS011;6832;51.186;3.236;2023-04-01T00:52:20;41.27;;;6.10;;
13520;SDS011;6832;51.186;3.236;2023-04-01T00:54:52;38.80;;;6.37;;
13520;SDS011;6832;51.186;3.236;2023-04-01T00:57:23;38.47;;;6.73;;
13520;SDS011;6832;51.186;3.236;2023-04-01T00:59:57;39.33;;;6.23;;
13520;SDS011;6832;51.186;3.236;2023-04-01T01:02:24;33.90;;;6.00;;
13520;SDS011;6832;51.186;3.236;2023-04-01T01:04:51;30.63;;;5.73;;
13520;SDS011;6832;51.186;3.236;2023-04-01T01:07:20;36.53;;;5.93;;
13520;SDS011;6832;51.186;3.236;2023-04-01T01:09:56;36.03;;;6.10;;
13520;SDS011;6832;51.186;3.236;2023-04-01T01:12:31;31.30;;;5.40;;
13520;SDS011;6832;51.186;3.236;2023-04-01T01:15:06;55.10;;;7.33;;
13520;SDS011;6832;51.186;3.236;2023-04-01T01:17:41;41.00;;;6.67;;
13520;SDS011;6832;51.186;3.236;2023-04-01T01:26:13;43.93;;;6.53;;
13520;SDS011;6832;51.186;3.236;2023-04-01T01:28:58;35.67;;;6.10;;
13520;SDS011;6832;51.186;3.236;2023-04-01T01:31:39;34.53;;;5.47;;
13520;SDS011;6832;51.186;3.236;2023-04-01T01:34:17;46.60;;;6.83;;
13520;SDS011;6832;51.186;3.236;2023-04-01T01:36:52;35.33;;;6.30;;
13520;SDS011;6832;51.186;3.236;2023-04-01T01:39:23;40.13;;;6.03;;
13520;SDS011;6832;51.186;3.236;2023-04-01T01:42:01;46.27;;;6.80;;
13520;SDS011;6832;51.186;3.236;2023-04-01T01:44:31;65.03;;;8.57;;
13520;SDS011;6832;51.186;3.236;2023-04-01T01:46:59;36.57;;;5.60;;
13520;SDS011;6832;51.186;3.236;2023-04-01T01:49:27;38.93;;;5.83;;
13520;SDS011;6832;51.186;3.236;2023-04-01T01:51:58;33.23;;;6.10;;
13520;SDS011;6832;51.186;3.236;2023-04-01T01:54:25;41.23;;;6.43;;
13520;SDS011;6832;51.186;3.236;2023-04-01T01:56:54;41.63;;;6.10;;
13520;SDS011;6832;51.186;3.236;2023-04-01T01:59:28;41.17;;;6.07;;
13520;SDS011;6832;51.186;3.236;2023-04-01T02:01:57;35.47;;;5.70;;
13520;SDS011;6832;51.186;3.236;2023-04-01T02:04:25;42.50;;;6.77;;
13520;SDS011;6832;51.186;3.236;2023-04-01T02:06:54;40.20;;;6.77;;
13520;SDS011;6832;51.186;3.236;2023-04-01T02:09:27;42.27;;;6.03;;
13520;SDS011;6832;51.186;3.236;2023-04-01T02:11:56;43.57;;;6.70;;
13520;SDS011;6832;51.186;3.236;2023-04-01T02:14:26;41.97;;;7.17;;
13520;SDS011;6832;51.186;3.236;2023-04-01T02:16:57;37.47;;;6.13;;
13520;SDS011;6832;51.186;3.236;2023-04-01T02:19:29;41.13;;;6.67;;
13520;SDS011;6832;51.186;3.236;2023-04-01T02:22:04;46.63;;;7.10;;
13520;SDS011;6832;51.186;3.236;2023-04-01T02:24:37;37.87;;;6.37;;
13520;SDS011;6832;51.186;3.236;2023-04-01T02:27:08;57.20;;;8.07;;
13520;SDS011;6832;51.186;3.236;2023-04-01T02:29:36;47.77;;;7.30;;
13520;SDS011;6832;51.186;3.236;2023-04-01T02:32:03;55.03;;;7.33;;
13520;SDS011;6832;51.186;3.236;2023-04-01T02:34:32;35.83;;;6.23;;
13520;SDS011;6832;51.186;3.236;2023-04-01T02:36:59;33.93;;;6.00;;
13520;SDS011;6832;51.186;3.236;2023-04-01T02:39:28;37.97;;;6.10;;
13520;SDS011;6832;51.186;3.236;2023-04-01T02:41:56;39.53;;;6.47;;
13520;SDS011;6832;51.186;3.236;2023-04-01T02:44:23;51.40;;;7.20;;
13520;SDS011;6832;51.186;3.236;2023-04-01T02:46:50;39.17;;;6.27;;
13520;SDS011;6832;51.186;3.236;2023-04-01T02:49:18;42.63;;;6.40;;
13520;SDS011;6832;51.186;3.236;2023-04-01T02:51:45;61.80;;;8.40;;
13520;SDS011;6832;51.186;3.236;2023-04-01T02:54:12;44.17;;;6.70;;
13520;SDS011;6832;51.186;3.236;2023-04-01T02:56:40;33.67;;;6.10;;
13520;SDS011;6832;51.186;3.236;2023-04-01T02:59:10;37.23;;;6.20;;
13520;SDS011;6832;51.186;3.236;2023-04-01T03:01:37;41.60;;;6.40;;
13520;SDS011;6832;51.186;3.236;2023-04-01T03:04:04;31.60;;;5.57;;
13520;SDS011;6832;51.186;3.236;2023-04-01T03:06:31;63.93;;;8.40;;
13520;SDS011;6832;51.186;3.236;2023-04-01T03:08:58;36.10;;;6.23;;
13520;SDS011;6832;51.186;3.236;2023-04-01T03:11:28;76.67;;;8.97;;
13520;SDS011;6832;51.186;3.236;2023-04-01T03:13:57;35.37;;;6.20;;
13520;SDS011;6832;51.186;3.236;2023-04-01T03:16:24;42.10;;;6.20;;
13520;SDS011;6832;51.186;3.236;2023-04-01T03:18:50;41.47;;;6.27;;
13520;SDS011;6832;51.186;3.236;2023-04-01T03:21:19;69.30;;;8.77;;
13520;SDS011;6832;51.186;3.236;2023-04-01T03:23:48;35.43;;;5.80;;
13520;SDS011;6832;51.186;3.236;2023-04-01T03:26:15;35.20;;;5.70;;
13520;SDS011;6832;51.186;3.236;2023-04-01T03:28:42;50.73;;;7.33;;
13520;SDS011;6832;51.186;3.236;2023-04-01T03:31:11;33.30;;;6.03;;
13520;SDS011;6832;51.186;3.236;2023-04-01T03:33:38;38.73;;;6.20;;
13520;SDS011;6832;51.186;3.236;2023-04-01T03:36:06;54.97;;;7.43;;
13520;SDS011;6832;51.186;3.236;2023-04-01T03:38:33;30.80;;;5.57;;
13520;SDS011;6832;51.186;3.236;2023-04-01T03:41:01;53.90;;;7.37;;
13520;SDS011;6832;51.186;3.236;2023-04-01T03:43:28;41.77;;;6.00;;
13520;SDS011;6832;51.186;3.236;2023-04-01T03:45:55;31.37;;;5.40;;
13520;SDS011;6832;51.186;3.236;2023-04-01T03:48:24;34.67;;;5.70;;
13520;SDS011;6832;51.186;3.236;2023-04-01T03:50:51;40.33;;;6.10;;
13520;SDS011;6832;51.186;3.236;2023-04-01T03:53:18;39.13;;;6.93;;
13520;SDS011;6832;51.186;3.236;2023-04-01T03:55:46;61.27;;;8.27;;
13520;SDS011;6832;51.186;3.236;2023-04-01T03:58:13;36.13;;;6.13;;
13520;SDS011;6832;51.186;3.236;2023-04-01T04:00:40;36.77;;;6.10;;
13520;SDS011;6832;51.186;3.236;2023-04-01T04:03:07;31.87;;;6.00;;
13520;SDS011;6832;51.186;3.236;2023-04-01T04:05:35;56.97;;;8.03;;
13520;SDS011;6832;51.186;3.236;2023-04-01T04:08:02;36.13;;;6.43;;
13520;SDS011;6832;51.186;3.236;2023-04-01T04:10:29;29.70;;;5.47;;
13520;SDS011;6832;51.186;3.236;2023-04-01T04:12:56;37.80;;;6.30;;
13520;SDS011;6832;51.186;3.236;2023-04-01T04:15:24;29.73;;;5.60;;
13520;SDS011;6832;51.186;3.236;2023-04-01T04:17:51;39.80;;;6.67;;
13520;SDS011;6832;51.186;3.236;2023-04-01T04:20:18;47.63;;;7.27;;
13520;SDS011;6832;51.186;3.236;2023-04-01T04:22:47;38.50;;;6.83;;
13520;SDS011;6832;51.186;3.236;2023-04-01T04:25:14;52.20;;;7.73;;
13520;SDS011;6832;51.186;3.236;2023-04-01T04:27:41;40.20;;;7.20;;
13520;SDS011;6832;51.186;3.236;2023-04-01T04:30:08;32.27;;;7.00;;
13520;SDS011;6832;51.186;3.236;2023-04-01T04:32:36;37.87;;;6.57;;
13520;SDS011;6832;51.186;3.236;2023-04-01T04:35:03;64.10;;;8.50;;
13520;SDS011;6832;51.186;3.236;2023-04-01T04:37:31;37.73;;;6.57;;
13520;SDS011;6832;51.186;3.236;2023-04-01T04:40:00;32.30;;;5.90;;
13520;SDS011;6832;51.186;3.236;2023-04-01T04:42:27;35.03;;;5.77;;
13520;SDS011;6832;51.186;3.236;2023-04-01T04:44:53;30.47;;;6.20;;
13520;SDS011;6832;51.186;3.236;2023-04-01T04:47:21;34.03;;;6.10;;
13520;SDS011;6832;51.186;3.236;2023-04-01T04:49:48;56.17;;;7.77;;
13520;SDS011;6832;51.186;3.236;2023-04-01T04:52:15;47.93;;;7.30;;
13520;SDS011;6832;51.186;3.236;2023-04-01T04:54:42;45.13;;;6.70;;
13520;SDS011;6832;51.186;3.236;2023-04-01T04:57:10;40.83;;;6.67;;
13520;SDS011;6832;51.186;3.236;2023-04-01T04:59:37;38.80;;;6.90;;
13520;SDS011;6832;51.186;3.236;2023-04-01T05:02:04;42.33;;;6.20;;
13520;SDS011;6832;51.186;3.236;2023-04-01T05:04:33;45.93;;;6.90;;
13520;SDS011;6832;51.186;3.236;2023-04-01T05:07:01;52.73;;;7.37;;
13520;SDS011;6832;51.186;3.236;2023-04-01T05:09:28;41.07;;;6.27;;
13520;SDS011;6832;51.186;3.236;2023-04-01T05:11:57;38.37;;;6.40;;
13520;SDS011;6832;51.186;3.236;2023-04-01T05:14:25;36.97;;;5.90;;
13520;SDS011;6832;51.186;3.236;2023-04-01T05:16:52;49.10;;;6.87;;
13520;SDS011;6832;51.186;3.236;2023-04-01T05:19:20;42.83;;;6.77;;
13520;SDS011;6832;51.186;3.236;2023-04-01T05:21:47;55.47;;;7.37;;
13520;SDS011;6832;51.186;3.236;2023-04-01T05:24:14;39.53;;;6.33;;
13520;SDS011;6832;51.186;3.236;2023-04-01T05:26:41;38.83;;;6.00;;
13520;SDS011;6832;51.186;3.236;2023-04-01T05:29:08;46.03;;;6.60;;
13520;SDS011;6832;51.186;3.236;2023-04-01T05:31:38;37.10;;;6.70;;
13520;SDS011;6832;51.186;3.236;2023-04-01T05:34:04;35.20;;;5.77;;
13520;SDS011;6832;51.186;3.236;2023-04-01T05:36:31;48.97;;;6.87;;
13520;SDS011;6832;51.186;3.236;2023-04-01T05:38:59;34.73;;;6.03;;
13520;SDS011;6832;51.186;3.236;2023-04-01T05:41:26;38.73;;;6.00;;
13520;SDS011;6832;51.186;3.236;2023-04-01T05:43:53;37.50;;;6.23;;
13520;SDS011;6832;51.186;3.236;2023-04-01T05:46:20;39.93;;;6.30;;
13520;SDS011;6832;51.186;3.236;2023-04-01T05:48:48;35.83;;;5.83;;
13520;SDS011;6832;51.186;3.236;2023-04-01T05:51:15;34.97;;;5.93;;
13520;SDS011;6832;51.186;3.236;2023-04-01T05:53:42;45.77;;;6.80;;
13520;SDS011;6832;51.186;3.236;2023-04-01T05:56:09;41.63;;;6.40;;
13520;SDS011;6832;51.186;3.236;2023-04-01T05:58:37;29.27;;;4.63;;
13520;SDS011;6832;51.186;3.236;2023-04-01T06:01:04;38.97;;;6.10;;
13520;SDS011;6832;51.186;3.236;2023-04-01T06:03:35;35.47;;;5.87;;
13520;SDS011;6832;51.186;3.236;2023-04-01T06:06:04;42.93;;;6.23;;
13520;SDS011;6832;51.186;3.236;2023-04-01T06:08:40;36.97;;;5.93;;
13520;SDS011;6832;51.186;3.236;2023-04-01T06:11:12;33.57;;;5.50;;
13520;SDS011;6832;51.186;3.236;2023-04-01T06:13:50;43.80;;;6.73;;
13520;SDS011;6832;51.186;3.236;2023-04-01T06:16:32;38.60;;;6.00;;
13520;SDS011;6832;51.186;3.236;2023-04-01T06:19:16;42.53;;;6.17;;
13520;SDS011;6832;51.186;3.236;2023-04-01T06:22:04;37.27;;;5.50;;
13520;SDS011;6832;51.186;3.236;2023-04-01T06:24:45;35.53;;;5.63;;
13520;SDS011;6832;51.186;3.236;2023-04-01T06:27:32;37.23;;;5.90;;
13520;SDS011;6832;51.186;3.236;2023-04-01T06:30:20;33.87;;;5.70;;
13520;SDS011;6832;51.186;3.236;2023-04-01T06:33:01;40.03;;;5.90;;
13520;SDS011;6832;51.186;3.236;2023-04-01T06:35:56;40.80;;;6.30;;
13520;SDS011;6832;51.186;3.236;2023-04-01T06:38:57;46.13;;;6.70;;
13520;SDS011;6832;51.186;3.236;2023-04-01T06:44:37;38.57;;;5.50;;
13520;SDS011;6832;51.186;3.236;2023-04-01T06:47:19;38.90;;;5.70;;
13520;SDS011;6832;51.186;3.236;2023-04-01T06:49:56;39.43;;;5.93;;
13520;SDS011;6832;51.186;3.236;2023-04-01T06:52:32;38.30;;;6.17;;
13520;SDS011;6832;51.186;3.236;2023-04-01T06:55:21;40.40;;;5.43;;
13520;SDS011;6832;51.186;3.236;2023-04-01T06:57:54;44.33;;;6.13;;
13520;SDS011;6832;51.186;3.236;2023-04-01T07:00:27;46.77;;;6.77;;
13520;SDS011;6832;51.186;3.236;2023-04-01T07:02:59;41.83;;;5.90;;
13520;SDS011;6832;51.186;3.236;2023-04-01T07:05:32;57.73;;;7.37;;
13520;SDS011;6832;51.186;3.236;2023-04-01T07:08:01;36.73;;;5.80;;
13520;SDS011;6832;51.186;3.236;2023-04-01T07:10:33;38.00;;;5.63;;
13520;SDS011;6832;51.186;3.236;2023-04-01T07:13:10;39.43;;;5.83;;
13520;SDS011;6832;51.186;3.236;2023-04-01T07:15:42;45.17;;;6.40;;
13520;SDS011;6832;51.186;3.236;2023-04-01T07:18:13;39.83;;;5.73;;
13520;SDS011;6832;51.186;3.236;2023-04-01T07:20:43;37.17;;;5.87;;
13520;SDS011;6832;51.186;3.236;2023-04-01T07:23:13;45.40;;;6.17;;
13520;SDS011;6832;51.186;3.236;2023-04-01T07:25:51;40.57;;;5.77;;
13520;SDS011;6832;51.186;3.236;2023-04-01T07:28:20;33.83;;;5.43;;
13520;SDS011;6832;51.186;3.236;2023-04-01T07:30:50;45.00;;;6.17;;
13520;SDS011;6832;51.186;3.236;2023-04-01T07:33:25;37.93;;;6.10;;
13520;SDS011;6832;51.186;3.236;2023-04-01T07:36:01;33.57;;;5.67;;
13520;SDS011;6832;51.186;3.236;2023-04-01T07:38:34;34.43;;;5.73;;
13520;SDS011;6832;51.186;3.236;2023-04-01T07:41:12;38.50;;;6.10;;
13520;SDS011;6832;51.186;3.236;2023-04-01T07:43:53;36.00;;;5.70;;
13520;SDS011;6832;51.186;3.236;2023-04-01T07:46:32;38.93;;;5.67;;
13520;SDS011;6832;51.186;3.236;2023-04-01T07:49:16;30.17;;;5.43;;
13520;SDS011;6832;51.186;3.236;2023-04-01T07:51:49;64.47;;;7.50;;
13520;SDS011;6832;51.186;3.236;2023-04-01T07:54:28;47.10;;;6.83;;
13520;SDS011;6832;51.186;3.236;2023-04-01T07:57:06;60.30;;;7.53;;
13520;SDS011;6832;51.186;3.236;2023-04-01T07:59:38;31.07;;;5.13;;
13520;SDS011;6832;51.186;3.236;2023-04-01T08:02:19;32.07;;;5.50;;
13520;SDS011;6832;51.186;3.236;2023-04-01T08:04:57;37.33;;;5.63;;
13520;SDS011;6832;51.186;3.236;2023-04-01T08:07:32;36.37;;;5.67;;
13520;SDS011;6832;51.186;3.236;2023-04-01T08:10:06;33.70;;;5.53;;
13520;SDS011;6832;51.186;3.236;2023-04-01T08:12:55;47.70;;;6.53;;
13520;SDS011;6832;51.186;3.236;2023-04-01T08:15:29;51.23;;;6.77;;
13520;SDS011;6832;51.186;3.236;2023-04-01T08:18:05;37.87;;;5.53;;
13520;SDS011;6832;51.186;3.236;2023-04-01T08:20:41;39.07;;;5.83;;
13520;SDS011;6832;51.186;3.236;2023-04-01T08:23:13;31.83;;;5.70;;
13520;SDS011;6832;51.186;3.236;2023-04-01T08:25:45;36.17;;;5.63;;
13520;SDS011;6832;51.186;3.236;2023-04-01T08:28:19;36.30;;;5.50;;
13520;SDS011;6832;51.186;3.236;2023-04-01T08:30:51;33.77;;;5.17;;
13520;SDS011;6832;51.186;3.236;2023-04-01T08:33:24;61.60;;;7.87;;
13520;SDS011;6832;51.186;3.236;2023-04-01T08:35:54;35.50;;;5.67;;
13520;SDS011;6832;51.186;3.236;2023-04-01T08:38:24;37.00;;;5.83;;
13520;SDS011;6832;51.186;3.236;2023-04-01T08:40:56;40.43;;;6.13;;
13520;SDS011;6832;51.186;3.236;2023-04-01T08:43:42;48.23;;;6.77;;
13520;SDS011;6832;51.186;3.236;2023-04-01T08:46:35;31.30;;;4.97;;
13520;SDS011;6832;51.186;3.236;2023-04-01T08:49:30;40.60;;;6.27;;
13520;SDS011;6832;51.186;3.236;2023-04-01T08:52:22;32.53;;;5.93;;
13520;SDS011;6832;51.186;3.236;2023-04-01T08:55:04;36.90;;;5.87;;
13520;SDS011;6832;51.186;3.236;2023-04-01T08:57:45;37.00;;;5.77;;
13520;SDS011;6832;51.186;3.236;2023-04-01T09:00:27;28.27;;;5.47;;
13520;SDS011;6832;51.186;3.236;2023-04-01T09:09:05;27.90;;;5.03;;
13520;SDS011;6832;51.186;3.236;2023-04-01T09:12:10;28.63;;;5.50;;
13520;SDS011;6832;51.186;3.236;2023-04-01T09:14:55;27.27;;;5.40;;
13520;SDS011;6832;51.186;3.236;2023-04-01T09:17:46;63.10;;;8.07;;
13520;SDS011;6832;51.186;3.236;2023-04-01T09:23:28;33.00;;;5.57;;
13520;SDS011;6832;51.186;3.236;2023-04-01T09:26:17;35.37;;;5.70;;
13520;SDS011;6832;51.186;3.236;2023-04-01T09:28:56;32.23;;;5.43;;
13520;SDS011;6832;51.186;3.236;2023-04-01T09:31:47;35.33;;;5.77;;
13520;SDS011;6832;51.186;3.236;2023-04-01T09:34:47;32.60;;;5.17;;
13520;SDS011;6832;51.186;3.236;2023-04-01T09:37:21;24.80;;;5.13;;
13520;SDS011;6832;51.186;3.236;2023-04-01T09:40:14;30.97;;;5.43;;
13520;SDS011;6832;51.186;3.236;2023-04-01T09:42:44;44.37;;;6.17;;
13520;SDS011;6832;51.186;3.236;2023-04-01T09:45:24;31.27;;;5.47;;
13520;SDS011;6832;51.186;3.236;2023-04-01T09:48:09;31.43;;;5.47;;
13520;SDS011;6832;51.186;3.236;2023-04-01T09:51:01;34.13;;;5.30;;
13520;SDS011;6832;51.186;3.236;2023-04-01T09:53:48;32.60;;;5.20;;
13520;SDS011;6832;51.186;3.236;2023-04-01T09:59:49;22.23;;;4.23;;
13520;SDS011;6832;51.186;3.236;2023-04-01T10:05:33;53.97;;;6.93;;
13520;SDS011;6832;51.186;3.236;2023-04-01T10:08:26;20.27;;;4.30;;
13520;SDS011;6832;51.186;3.236;2023-04-01T10:11:42;25.83;;;4.70;;
13520;SDS011;6832;51.186;3.236;2023-04-01T10:14:46;22.30;;;4.40;;
13520;SDS011;6832;51.186;3.236;2023-04-01T10:17:55;17.20;;;4.33;;
13520;SDS011;6832;51.186;3.236;2023-04-01T10:20:41;24.47;;;5.00;;
13520;SDS011;6832;51.186;3.236;2023-04-01T10:23:31;23.13;;;4.53;;
13520;SDS011;6832;51.186;3.236;2023-04-01T10:26:25;42.97;;;6.23;;
13520;SDS011;6832;51.186;3.236;2023-04-01T10:32:39;15.70;;;3.97;;
13520;SDS011;6832;51.186;3.236;2023-04-01T10:35:43;18.00;;;3.97;;
13520;SDS011;6832;51.186;3.236;2023-04-01T10:54:07;37.87;;;5.57;;
13520;SDS011;6832;51.186;3.236;2023-04-01T10:56:55;27.80;;;4.97;;
13520;SDS011;6832;51.186;3.236;2023-04-01T11:08:52;35.77;;;5.57;;
13520;SDS011;6832;51.186;3.236;2023-04-01T11:14:39;39.30;;;6.23;;
13520;SDS011;6832;51.186;3.236;2023-04-01T11:26:36;40.03;;;6.57;;
13520;SDS011;6832;51.186;3.236;2023-04-01T11:32:42;21.57;;;4.70;;
13520;SDS011;6832;51.186;3.236;2023-04-01T11:35:26;54.50;;;7.37;;
13520;SDS011;6832;51.186;3.236;2023-04-01T11:38:04;45.83;;;6.97;;
13520;SDS011;6832;51.186;3.236;2023-04-01T11:40:43;32.17;;;5.53;;
13520;SDS011;6832;51.186;3.236;2023-04-01T11:43:18;58.60;;;7.67;;
13520;SDS011;6832;51.186;3.236;2023-04-01T11:45:56;46.57;;;6.83;;
13520;SDS011;6832;51.186;3.236;2023-04-01T11:51:36;35.00;;;5.93;;
13520;SDS011;6832;51.186;3.236;2023-04-01T11:54:23;34.80;;;5.73;;
13520;SDS011;6832;51.186;3.236;2023-04-01T11:57:31;41.27;;;6.43;;
13520;SDS011;6832;51.186;3.236;2023-04-01T12:00:21;32.00;;;5.73;;
13520;SDS011;6832;51.186;3.236;2023-04-01T12:03:02;35.90;;;5.60;;
13520;SDS011;6832;51.186;3.236;2023-04-01T12:05:53;40.43;;;6.57;;
13520;SDS011;6832;51.186;3.236;2023-04-01T12:08:27;47.43;;;6.57;;
13520;SDS011;6832;51.186;3.236;2023-04-01T12:11:05;41.83;;;6.50;;
13520;SDS011;6832;51.186;3.236;2023-04-01T12:13:42;43.50;;;6.60;;
13520;SDS011;6832;51.186;3.236;2023-04-01T12:16:22;46.70;;;6.60;;
13520;SDS011;6832;51.186;3.236;2023-04-01T12:19:09;40.03;;;6.10;;
13520;SDS011;6832;51.186;3.236;2023-04-01T12:21:48;42.00;;;6.67;;
13520;SDS011;6832;51.186;3.236;2023-04-01T12:24:25;46.73;;;6.90;;
13520;SDS011;6832;51.186;3.236;2023-04-01T12:27:05;41.80;;;7.47;;
13520;SDS011;6832;51.186;3.236;2023-04-01T12:29:48;38.13;;;7.10;;
13520;SDS011;6832;51.186;3.236;2023-04-01T12:32:41;43.37;;;7.77;;
13520;SDS011;6832;51.186;3.236;2023-04-01T12:35:15;36.93;;;6.97;;
13520;SDS011;6832;51.186;3.236;2023-04-01T12:37:50;36.27;;;7.43;;
13520;SDS011;6832;51.186;3.236;2023-04-01T12:40:30;32.80;;;7.73;;
13520;SDS011;6832;51.186;3.236;2023-04-01T12:43:23;38.80;;;7.43;;
13520;SDS011;6832;51.186;3.236;2023-04-01T12:46:59;38.07;;;8.07;;
13520;SDS011;6832;51.186;3.236;2023-04-01T12:49:37;39.77;;;8.47;;
13520;SDS011;6832;51.186;3.236;2023-04-01T12:52:18;35.57;;;8.47;;
13520;SDS011;6832;51.186;3.236;2023-04-01T12:55:08;39.83;;;8.23;;
13520;SDS011;6832;51.186;3.236;2023-04-01T12:58:03;51.53;;;8.60;;
13520;SDS011;6832;51.186;3.236;2023-04-01T13:00:46;37.80;;;7.63;;
13520;SDS011;6832;51.186;3.236;2023-04-01T13:09:16;46.07;;;8.47;;
13520;SDS011;6832;51.186;3.236;2023-04-01T13:11:56;74.90;;;11.07;;
13520;SDS011;6832;51.186;3.236;2023-04-01T13:14:47;50.37;;;8.70;;
13520;SDS011;6832;51.186;3.236;2023-04-01T13:17:25;50.53;;;8.97;;
13520;SDS011;6832;51.186;3.236;2023-04-01T13:19:58;34.40;;;7.87;;
13520;SDS011;6832;51.186;3.236;2023-04-01T13:22:41;45.73;;;8.50;;
13520;SDS011;6832;51.186;3.236;2023-04-01T13:25:20;35.10;;;7.67;;
13520;SDS011;6832;51.186;3.236;2023-04-01T13:27:54;42.13;;;7.87;;
13520;SDS011;6832;51.186;3.236;2023-04-01T13:30:30;42.40;;;8.47;;
13520;SDS011;6832;51.186;3.236;2023-04-01T13:33:05;73.60;;;10.60;;
13520;SDS011;6832;51.186;3.236;2023-04-01T13:35:43;47.70;;;8.33;;
13520;SDS011;6832;51.186;3.236;2023-04-01T13:38:24;38.00;;;8.30;;
13520;SDS011;6832;51.186;3.236;2023-04-01T13:41:09;39.23;;;7.70;;
13520;SDS011;6832;51.186;3.236;2023-04-01T13:43:47;55.23;;;9.00;;
13520;SDS011;6832;51.186;3.236;2023-04-01T13:46:32;36.00;;;7.80;;
13520;SDS011;6832;51.186;3.236;2023-04-01T13:49:40;31.37;;;7.40;;
13520;SDS011;6832;51.186;3.236;2023-04-01T13:52:44;46.53;;;8.10;;
13520;SDS011;6832;51.186;3.236;2023-04-01T13:55:43;33.07;;;7.07;;
13520;SDS011;6832;51.186;3.236;2023-04-01T13:58:21;40.80;;;7.40;;
13520;SDS011;6832;51.186;3.236;2023-04-01T14:01:00;39.30;;;7.50;;
13520;SDS011;6832;51.186;3.236;2023-04-01T14:03:40;32.50;;;6.67;;
13520;SDS011;6832;51.186;3.236;2023-04-01T14:06:19;54.40;;;8.63;;
13520;SDS011;6832;51.186;3.236;2023-04-01T14:12:13;42.17;;;7.93;;
13520;SDS011;6832;51.186;3.236;2023-04-01T14:18:10;57.90;;;8.30;;
13520;SDS011;6832;51.186;3.236;2023-04-01T14:20:51;38.97;;;7.10;;
13520;SDS011;6832;51.186;3.236;2023-04-01T14:23:33;43.03;;;7.00;;
13520;SDS011;6832;51.186;3.236;2023-04-01T14:29:23;37.13;;;7.20;;
13520;SDS011;6832;51.186;3.236;2023-04-01T14:32:06;69.70;;;9.97;;
13520;SDS011;6832;51.186;3.236;2023-04-01T14:37:36;79.17;;;11.03;;
13520;SDS011;6832;51.186;3.236;2023-04-01T14:40:26;43.60;;;8.37;;
13520;SDS011;6832;51.186;3.236;2023-04-01T14:45:56;49.60;;;8.80;;
13520;SDS011;6832;51.186;3.236;2023-04-01T14:48:57;43.50;;;8.57;;
13520;SDS011;6832;51.186;3.236;2023-04-01T14:51:28;45.03;;;8.10;;
13520;SDS011;6832;51.186;3.236;2023-04-01T14:54:03;61.77;;;9.93;;
13520;SDS011;6832;51.186;3.236;2023-04-01T14:56:35;39.33;;;7.77;;
13520;SDS011;6832;51.186;3.236;2023-04-01T14:59:08;42.70;;;7.83;;
13520;SDS011;6832;51.186;3.236;2023-04-01T15:01:44;58.47;;;9.43;;
13520;SDS011;6832;51.186;3.236;2023-04-01T15:04:24;37.70;;;7.33;;
13520;SDS011;6832;51.186;3.236;2023-04-01T15:10:44;50.57;;;8.00;;
13520;SDS011;6832;51.186;3.236;2023-04-01T15:16:34;59.53;;;9.00;;
13520;SDS011;6832;51.186;3.236;2023-04-01T15:19:12;45.13;;;7.73;;
13520;SDS011;6832;51.186;3.236;2023-04-01T15:21:50;41.77;;;7.37;;
13520;SDS011;6832;51.186;3.236;2023-04-01T15:24:45;34.30;;;6.77;;
13520;SDS011;6832;51.186;3.236;2023-04-01T15:27:32;34.50;;;7.17;;
13520;SDS011;6832;51.186;3.236;2023-04-01T15:30:21;44.30;;;7.73;;
13520;SDS011;6832;51.186;3.236;2023-04-01T15:36:03;41.83;;;7.23;;
13520;SDS011;6832;51.186;3.236;2023-04-01T15:38:41;51.17;;;7.90;;
13520;SDS011;6832;51.186;3.236;2023-04-01T15:41:20;50.97;;;8.13;;
13520;SDS011;6832;51.186;3.236;2023-04-01T15:43:51;39.03;;;7.50;;
13520;SDS011;6832;51.186;3.236;2023-04-01T15:46:21;46.60;;;7.60;;
13520;SDS011;6832;51.186;3.236;2023-04-01T15:52:14;41.40;;;7.03;;
13520;SDS011;6832;51.186;3.236;2023-04-01T15:55:00;44.20;;;7.00;;
13520;SDS011;6832;51.186;3.236;2023-04-01T15:57:42;48.53;;;7.83;;
13520;SDS011;6832;51.186;3.236;2023-04-01T16:00:26;49.07;;;7.80;;
13520;SDS011;6832;51.186;3.236;2023-04-01T16:03:09;37.67;;;6.70;;
13520;SDS011;6832;51.186;3.236;2023-04-01T16:05:58;37.40;;;6.83;;
13520;SDS011;6832;51.186;3.236;2023-04-01T16:11:28;31.57;;;6.83;;
13520;SDS011;6832;51.186;3.236;2023-04-01T16:14:09;64.07;;;8.90;;
13520;SDS011;6832;51.186;3.236;2023-04-01T16:19:49;66.93;;;9.03;;
13520;SDS011;6832;51.186;3.236;2023-04-01T16:22:21;43.83;;;7.33;;
13520;SDS011;6832;51.186;3.236;2023-04-01T16:27:49;39.17;;;6.90;;
13520;SDS011;6832;51.186;3.236;2023-04-01T16:30:32;69.13;;;9.33;;
13520;SDS011;6832;51.186;3.236;2023-04-01T16:33:02;42.53;;;7.27;;
13520;SDS011;6832;51.186;3.236;2023-04-01T16:35:39;43.47;;;7.07;;
13520;SDS011;6832;51.186;3.236;2023-04-01T16:38:23;38.20;;;7.10;;
13520;SDS011;6832;51.186;3.236;2023-04-01T16:41:04;30.73;;;6.33;;
13520;SDS011;6832;51.186;3.236;2023-04-01T16:43:40;33.27;;;6.97;;
13520;SDS011;6832;51.186;3.236;2023-04-01T16:46:18;38.87;;;6.80;;
13520;SDS011;6832;51.186;3.236;2023-04-01T16:51:52;42.93;;;7.13;;
13520;SDS011;6832;51.186;3.236;2023-04-01T16:57:21;37.10;;;6.33;;
13520;SDS011;6832;51.186;3.236;2023-04-01T16:59:54;41.80;;;6.97;;
13520;SDS011;6832;51.186;3.236;2023-04-01T17:02:28;33.97;;;5.97;;
13520;SDS011;6832;51.186;3.236;2023-04-01T17:05:04;50.20;;;7.27;;
13520;SDS011;6832;51.186;3.236;2023-04-01T17:07:40;42.37;;;6.50;;
13520;SDS011;6832;51.186;3.236;2023-04-01T17:13:09;44.13;;;6.90;;
13520;SDS011;6832;51.186;3.236;2023-04-01T17:15:46;39.23;;;7.00;;
13520;SDS011;6832;51.186;3.236;2023-04-01T17:18:23;31.53;;;5.70;;
13520;SDS011;6832;51.186;3.236;2023-04-01T17:21:23;39.70;;;6.73;;
13520;SDS011;6832;51.186;3.236;2023-04-01T17:23:59;37.73;;;6.87;;
13520;SDS011;6832;51.186;3.236;2023-04-01T17:26:33;40.53;;;7.13;;
13520;SDS011;6832;51.186;3.236;2023-04-01T17:29:10;37.23;;;7.60;;
13520;SDS011;6832;51.186;3.236;2023-04-01T17:31:45;41.63;;;9.37;;
13520;SDS011;6832;51.186;3.236;2023-04-01T17:34:29;41.93;;;9.77;;
13520;SDS011;6832;51.186;3.236;2023-04-01T17:37:11;51.90;;;10.47;;
13520;SDS011;6832;51.186;3.236;2023-04-01T17:40:13;43.23;;;9.73;;
13520;SDS011;6832;51.186;3.236;2023-04-01T17:42:52;39.03;;;9.93;;
13520;SDS011;6832;51.186;3.236;2023-04-01T17:45:27;38.53;;;10.30;;